sensor_id;sensor_type;location;lat;lon;timestamp;P1;durP1;ratioP1;P2;durP2;ratioP2
68076;SDS011;54866;53.458;14.540;2022-07-25T00:02:24;4.10;;;2.10;;
68076;SDS011;54866;53.458;14.540;2022-07-25T00:04:54;3.50;;;2.20;;
68076;SDS011;54866;53.458;14.540;2022-07-25T00:07:23;5.10;;;2.50;;
68076;SDS011;54866;53.458;14.540;2022-07-25T00:09:53;4.20;;;2.60;;
68076;SDS011;54866;53.458;14.540;2022-07-25T00:12:23;5.90;;;2.60;;
68076;SDS011;54866;53.458;14.540;2022-07-25T00:14:53;5.10;;;2.50;;
68076;SDS011;54866;53.458;14.540;2022-07-25T00:17:23;3.50;;;2.80;;
68076;SDS011;54866;53.458;14.540;2022-07-25T00:19:52;3.70;;;2.20;;
68076;SDS011;54866;53.458;14.540;2022-07-25T00:22:22;5.50;;;2.30;;
68076;SDS011;54866;53.458;14.540;2022-07-25T00:24:52;3.70;;;2.40;;
68076;SDS011;54866;53.458;14.540;2022-07-25T00:27:22;3.20;;;2.10;;
68076;SDS011;54866;53.458;14.540;2022-07-25T00:29:52;4.60;;;2.70;;
68076;SDS011;54866;53.458;14.540;2022-07-25T00:32:21;4.00;;;2.90;;
68076;SDS011;54866;53.458;14.540;2022-07-25T00:34:51;4.80;;;2.30;;
68076;SDS011;54866;53.458;14.540;2022-07-25T00:37:21;5.10;;;2.80;;
68076;SDS011;54866;53.458;14.540;2022-07-25T00:39:51;3.70;;;2.20;;
68076;SDS011;54866;53.458;14.540;2022-07-25T00:42:20;4.40;;;2.60;;
68076;SDS011;54866;53.458;14.540;2022-07-25T00:44:50;3.70;;;2.50;;
68076;SDS011;54866;53.458;14.540;2022-07-25T00:47:20;5.00;;;2.90;;
68076;SDS011;54866;53.458;14.540;2022-07-25T00:49:50;4.40;;;2.50;;
68076;SDS011;54866;53.458;14.540;2022-07-25T00:52:20;4.90;;;2.80;;
68076;SDS011;54866;53.458;14.540;2022-07-25T00:54:50;3.40;;;2.40;;
68076;SDS011;54866;53.458;14.540;2022-07-25T00:57:20;4.50;;;2.30;;
68076;SDS011;54866;53.458;14.540;2022-07-25T00:59:49;4.30;;;2.60;;
68076;SDS011;54866;53.458;14.540;2022-07-25T01:02:19;4.80;;;2.50;;
68076;SDS011;54866;53.458;14.540;2022-07-25T01:04:49;4.50;;;2.60;;
68076;SDS011;54866;53.458;14.540;2022-07-25T01:07:20;3.40;;;2.30;;
68076;SDS011;54866;53.458;14.540;2022-07-25T01:09:50;3.30;;;2.90;;
68076;SDS011;54866;53.458;14.540;2022-07-25T01:12:20;3.20;;;2.60;;
68076;SDS011;54866;53.458;14.540;2022-07-25T01:14:50;5.10;;;2.70;;
68076;SDS011;54866;53.458;14.540;2022-07-25T01:17:20;3.90;;;2.20;;
68076;SDS011;54866;53.458;14.540;2022-07-25T01:19:50;3.80;;;2.20;;
68076;SDS011;54866;53.458;14.540;2022-07-25T01:22:19;4.30;;;2.50;;
68076;SDS011;54866;53.458;14.540;2022-07-25T01:24:49;4.80;;;2.10;;
68076;SDS011;54866;53.458;14.540;2022-07-25T01:27:19;3.10;;;2.30;;
68076;SDS011;54866;53.458;14.540;2022-07-25T01:29:49;3.80;;;2.10;;
68076;SDS011;54866;53.458;14.540;2022-07-25T01:32:18;3.80;;;2.40;;
68076;SDS011;54866;53.458;14.540;2022-07-25T01:34:48;3.40;;;2.20;;
68076;SDS011;54866;53.458;14.540;2022-07-25T01:37:18;3.40;;;2.40;;
68076;SDS011;54866;53.458;14.540;2022-07-25T01:39:48;4.60;;;2.80;;
68076;SDS011;54866;53.458;14.540;2022-07-25T01:42:17;5.60;;;2.40;;
68076;SDS011;54866;53.458;14.540;2022-07-25T01:44:47;3.40;;;2.30;;
68076;SDS011;54866;53.458;14.540;2022-07-25T01:47:17;3.40;;;2.20;;
68076;SDS011;54866;53.458;14.540;2022-07-25T01:49:47;3.80;;;2.40;;
68076;SDS011;54866;53.458;14.540;2022-07-25T01:52:17;3.60;;;2.60;;
68076;SDS011;54866;53.458;14.540;2022-07-25T01:54:47;4.10;;;2.30;;
68076;SDS011;54866;53.458;14.540;2022-07-25T01:57:16;3.60;;;2.00;;
68076;SDS011;54866;53.458;14.540;2022-07-25T01:59:46;3.90;;;2.90;;
68076;SDS011;54866;53.458;14.540;2022-07-25T02:02:16;4.70;;;2.70;;
68076;SDS011;54866;53.458;14.540;2022-07-25T02:04:46;4.20;;;2.50;;
68076;SDS011;54866;53.458;14.540;2022-07-25T02:07:16;3.50;;;2.30;;
68076;SDS011;54866;53.458;14.540;2022-07-25T02:09:46;3.90;;;2.20;;
68076;SDS011;54866;53.458;14.540;2022-07-25T02:12:15;3.90;;;2.40;;
68076;SDS011;54866;53.458;14.540;2022-07-25T02:14:45;4.70;;;2.30;;
68076;SDS011;54866;53.458;14.540;2022-07-25T02:17:15;3.60;;;2.60;;
68076;SDS011;54866;53.458;14.540;2022-07-25T02:19:45;4.10;;;2.10;;
68076;SDS011;54866;53.458;14.540;2022-07-25T02:22:15;3.10;;;2.20;;
68076;SDS011;54866;53.458;14.540;2022-07-25T02:24:45;3.80;;;2.50;;
68076;SDS011;54866;53.458;14.540;2022-07-25T02:27:15;3.50;;;2.30;;
68076;SDS011;54866;53.458;14.540;2022-07-25T02:29:44;3.10;;;2.30;;
68076;SDS011;54866;53.458;14.540;2022-07-25T02:32:14;3.50;;;2.10;;
68076;SDS011;54866;53.458;14.540;2022-07-25T02:34:44;3.50;;;2.10;;
68076;SDS011;54866;53.458;14.540;2022-07-25T02:37:14;3.60;;;2.40;;
68076;SDS011;54866;53.458;14.540;2022-07-25T02:39:44;4.00;;;2.40;;
68076;SDS011;54866;53.458;14.540;2022-07-25T02:42:13;3.80;;;2.40;;
68076;SDS011;54866;53.458;14.540;2022-07-25T02:44:43;5.10;;;2.50;;
68076;SDS011;54866;53.458;14.540;2022-07-25T02:47:13;3.30;;;2.00;;
68076;SDS011;54866;53.458;14.540;2022-07-25T02:49:43;2.70;;;2.00;;
68076;SDS011;54866;53.458;14.540;2022-07-25T02:52:13;3.60;;;2.40;;
68076;SDS011;54866;53.458;14.540;2022-07-25T02:54:42;4.10;;;2.20;;
68076;SDS011;54866;53.458;14.540;2022-07-25T02:57:12;4.30;;;2.40;;
68076;SDS011;54866;53.458;14.540;2022-07-25T02:59:42;3.20;;;2.20;;
68076;SDS011;54866;53.458;14.540;2022-07-25T03:02:12;5.30;;;2.30;;
68076;SDS011;54866;53.458;14.540;2022-07-25T03:04:41;3.00;;;1.90;;
68076;SDS011;54866;53.458;14.540;2022-07-25T03:07:11;3.70;;;2.10;;
68076;SDS011;54866;53.458;14.540;2022-07-25T03:09:41;3.80;;;2.30;;
68076;SDS011;54866;53.458;14.540;2022-07-25T03:12:11;4.00;;;2.30;;
68076;SDS011;54866;53.458;14.540;2022-07-25T03:14:41;2.90;;;1.90;;
68076;SDS011;54866;53.458;14.540;2022-07-25T03:17:10;3.30;;;2.10;;
68076;SDS011;54866;53.458;14.540;2022-07-25T03:19:40;3.50;;;2.40;;
68076;SDS011;54866;53.458;14.540;2022-07-25T03:22:10;4.00;;;2.20;;
68076;SDS011;54866;53.458;14.540;2022-07-25T03:24:40;3.80;;;2.00;;
68076;SDS011;54866;53.458;14.540;2022-07-25T03:27:10;3.40;;;2.60;;
68076;SDS011;54866;53.458;14.540;2022-07-25T03:29:41;2.80;;;2.20;;
68076;SDS011;54866;53.458;14.540;2022-07-25T03:32:11;4.00;;;2.20;;
68076;SDS011;54866;53.458;14.540;2022-07-25T03:34:41;3.50;;;2.00;;
68076;SDS011;54866;53.458;14.540;2022-07-25T03:37:11;3.20;;;2.20;;
68076;SDS011;54866;53.458;14.540;2022-07-25T03:39:41;4.30;;;2.00;;
68076;SDS011;54866;53.458;14.540;2022-07-25T03:42:10;2.60;;;1.70;;
68076;SDS011;54866;53.458;14.540;2022-07-25T03:44:40;3.70;;;2.20;;
68076;SDS011;54866;53.458;14.540;2022-07-25T03:47:10;3.80;;;2.00;;
68076;SDS011;54866;53.458;14.540;2022-07-25T03:49:40;4.10;;;2.90;;
68076;SDS011;54866;53.458;14.540;2022-07-25T03:52:10;3.20;;;1.90;;
68076;SDS011;54866;53.458;14.540;2022-07-25T03:54:39;3.00;;;1.90;;
68076;SDS011;54866;53.458;14.540;2022-07-25T03:57:09;3.30;;;2.10;;
68076;SDS011;54866;53.458;14.540;2022-07-25T03:59:39;4.20;;;2.30;;
68076;SDS011;54866;53.458;14.540;2022-07-25T04:02:09;3.70;;;2.40;;
68076;SDS011;54866;53.458;14.540;2022-07-25T04:04:38;2.80;;;1.80;;
68076;SDS011;54866;53.458;14.540;2022-07-25T04:07:08;4.50;;;2.10;;
68076;SDS011;54866;53.458;14.540;2022-07-25T04:09:38;2.70;;;2.10;;
68076;SDS011;54866;53.458;14.540;2022-07-25T04:12:09;4.60;;;2.20;;
68076;SDS011;54866;53.458;14.540;2022-07-25T04:14:39;4.50;;;2.20;;
68076;SDS011;54866;53.458;14.540;2022-07-25T04:17:09;3.00;;;2.00;;
68076;SDS011;54866;53.458;14.540;2022-07-25T04:19:39;2.90;;;1.90;;
68076;SDS011;54866;53.458;14.540;2022-07-25T04:22:08;2.80;;;2.00;;
68076;SDS011;54866;53.458;14.540;2022-07-25T04:24:38;3.80;;;2.20;;
68076;SDS011;54866;53.458;14.540;2022-07-25T04:27:08;3.70;;;2.20;;
68076;SDS011;54866;53.458;14.540;2022-07-25T04:29:38;3.00;;;1.90;;
68076;SDS011;54866;53.458;14.540;2022-07-25T04:32:08;2.80;;;2.00;;
68076;SDS011;54866;53.458;14.540;2022-07-25T04:34:39;3.30;;;1.90;;
68076;SDS011;54866;53.458;14.540;2022-07-25T04:37:09;2.60;;;2.00;;
68076;SDS011;54866;53.458;14.540;2022-07-25T04:39:38;3.90;;;1.90;;
68076;SDS011;54866;53.458;14.540;2022-07-25T04:42:08;3.70;;;2.20;;
68076;SDS011;54866;53.458;14.540;2022-07-25T04:44:38;3.10;;;1.80;;
68076;SDS011;54866;53.458;14.540;2022-07-25T04:47:08;2.80;;;2.20;;
68076;SDS011;54866;53.458;14.540;2022-07-25T04:49:38;4.80;;;2.10;;
68076;SDS011;54866;53.458;14.540;2022-07-25T04:52:07;4.50;;;2.30;;
68076;SDS011;54866;53.458;14.540;2022-07-25T04:54:37;3.60;;;2.40;;
68076;SDS011;54866;53.458;14.540;2022-07-25T04:57:07;6.10;;;2.50;;
68076;SDS011;54866;53.458;14.540;2022-07-25T04:59:37;3.00;;;2.30;;
68076;SDS011;54866;53.458;14.540;2022-07-25T05:02:06;3.40;;;1.90;;
68076;SDS011;54866;53.458;14.540;2022-07-25T05:04:36;4.00;;;2.10;;
68076;SDS011;54866;53.458;14.540;2022-07-25T05:07:06;3.60;;;2.10;;
68076;SDS011;54866;53.458;14.540;2022-07-25T05:09:36;4.60;;;2.70;;
68076;SDS011;54866;53.458;14.540;2022-07-25T05:12:06;2.90;;;2.00;;
68076;SDS011;54866;53.458;14.540;2022-07-25T05:14:37;3.80;;;2.20;;
68076;SDS011;54866;53.458;14.540;2022-07-25T05:17:07;3.00;;;2.30;;
68076;SDS011;54866;53.458;14.540;2022-07-25T05:19:37;4.10;;;2.50;;
68076;SDS011;54866;53.458;14.540;2022-07-25T05:22:07;3.10;;;2.30;;
68076;SDS011;54866;53.458;14.540;2022-07-25T05:24:37;3.30;;;2.30;;
68076;SDS011;54866;53.458;14.540;2022-07-25T05:27:07;3.20;;;2.30;;
68076;SDS011;54866;53.458;14.540;2022-07-25T05:29:37;4.00;;;2.20;;
68076;SDS011;54866;53.458;14.540;2022-07-25T05:32:06;6.50;;;2.60;;
68076;SDS011;54866;53.458;14.540;2022-07-25T05:34:36;3.30;;;2.50;;
68076;SDS011;54866;53.458;14.540;2022-07-25T05:37:06;3.40;;;2.20;;
68076;SDS011;54866;53.458;14.540;2022-07-25T05:39:36;3.20;;;2.70;;
68076;SDS011;54866;53.458;14.540;2022-07-25T05:42:06;3.40;;;2.10;;
68076;SDS011;54866;53.458;14.540;2022-07-25T05:44:35;2.80;;;2.00;;
68076;SDS011;54866;53.458;14.540;2022-07-25T05:47:08;3.90;;;2.10;;
68076;SDS011;54866;53.458;14.540;2022-07-25T05:49:38;4.40;;;2.30;;
68076;SDS011;54866;53.458;14.540;2022-07-25T05:52:08;3.80;;;2.20;;
68076;SDS011;54866;53.458;14.540;2022-07-25T05:54:38;3.90;;;2.10;;
68076;SDS011;54866;53.458;14.540;2022-07-25T05:57:08;4.00;;;2.10;;
68076;SDS011;54866;53.458;14.540;2022-07-25T05:59:38;3.90;;;1.90;;
68076;SDS011;54866;53.458;14.540;2022-07-25T06:02:07;5.50;;;2.60;;
68076;SDS011;54866;53.458;14.540;2022-07-25T06:04:37;3.40;;;2.50;;
68076;SDS011;54866;53.458;14.540;2022-07-25T06:07:07;3.60;;;2.40;;
68076;SDS011;54866;53.458;14.540;2022-07-25T06:09:37;4.10;;;2.70;;
68076;SDS011;54866;53.458;14.540;2022-07-25T06:12:07;4.50;;;2.30;;
68076;SDS011;54866;53.458;14.540;2022-07-25T06:14:37;3.40;;;2.10;;
68076;SDS011;54866;53.458;14.540;2022-07-25T06:17:07;4.10;;;2.10;;
68076;SDS011;54866;53.458;14.540;2022-07-25T06:19:36;4.10;;;2.20;;
68076;SDS011;54866;53.458;14.540;2022-07-25T06:22:06;4.30;;;3.00;;
68076;SDS011;54866;53.458;14.540;2022-07-25T06:24:36;5.70;;;2.70;;
68076;SDS011;54866;53.458;14.540;2022-07-25T06:27:07;4.20;;;2.60;;
68076;SDS011;54866;53.458;14.540;2022-07-25T06:29:37;3.20;;;2.00;;
68076;SDS011;54866;53.458;14.540;2022-07-25T06:32:07;3.20;;;2.00;;
68076;SDS011;54866;53.458;14.540;2022-07-25T06:34:37;3.40;;;1.60;;
68076;SDS011;54866;53.458;14.540;2022-07-25T06:37:07;2.40;;;1.50;;
68076;SDS011;54866;53.458;14.540;2022-07-25T06:39:37;3.30;;;1.60;;
68076;SDS011;54866;53.458;14.540;2022-07-25T06:42:07;2.80;;;1.80;;
68076;SDS011;54866;53.458;14.540;2022-07-25T06:44:36;2.70;;;1.60;;
68076;SDS011;54866;53.458;14.540;2022-07-25T06:47:06;3.80;;;1.90;;
68076;SDS011;54866;53.458;14.540;2022-07-25T06:52:06;4.40;;;1.80;;
68076;SDS011;54866;53.458;14.540;2022-07-25T06:54:36;3.00;;;1.90;;
68076;SDS011;54866;53.458;14.540;2022-07-25T06:57:05;2.80;;;2.00;;
68076;SDS011;54866;53.458;14.540;2022-07-25T06:59:35;3.00;;;1.60;;
68076;SDS011;54866;53.458;14.540;2022-07-25T07:02:05;3.70;;;1.80;;
68076;SDS011;54866;53.458;14.540;2022-07-25T07:04:35;3.00;;;1.90;;
68076;SDS011;54866;53.458;14.540;2022-07-25T07:07:05;2.90;;;1.40;;
68076;SDS011;54866;53.458;14.540;2022-07-25T07:09:35;3.80;;;1.80;;
68076;SDS011;54866;53.458;14.540;2022-07-25T07:12:05;3.10;;;2.20;;
68076;SDS011;54866;53.458;14.540;2022-07-25T07:14:35;2.60;;;1.60;;
68076;SDS011;54866;53.458;14.540;2022-07-25T07:17:05;6.50;;;2.00;;
68076;SDS011;54866;53.458;14.540;2022-07-25T07:19:35;3.70;;;1.70;;
68076;SDS011;54866;53.458;14.540;2022-07-25T07:22:09;3.80;;;1.90;;
68076;SDS011;54866;53.458;14.540;2022-07-25T07:24:39;2.40;;;1.60;;
68076;SDS011;54866;53.458;14.540;2022-07-25T07:27:09;5.10;;;1.80;;
68076;SDS011;54866;53.458;14.540;2022-07-25T07:29:39;2.40;;;1.60;;
68076;SDS011;54866;53.458;14.540;2022-07-25T07:32:09;4.90;;;2.10;;
68076;SDS011;54866;53.458;14.540;2022-07-25T07:34:39;3.40;;;2.00;;
68076;SDS011;54866;53.458;14.540;2022-07-25T07:37:09;4.40;;;2.00;;
68076;SDS011;54866;53.458;14.540;2022-07-25T07:39:38;3.30;;;2.00;;
68076;SDS011;54866;53.458;14.540;2022-07-25T07:42:08;3.00;;;1.90;;
68076;SDS011;54866;53.458;14.540;2022-07-25T07:44:38;3.60;;;1.70;;
68076;SDS011;54866;53.458;14.540;2022-07-25T07:47:08;3.30;;;1.70;;
68076;SDS011;54866;53.458;14.540;2022-07-25T07:49:38;3.70;;;1.90;;
68076;SDS011;54866;53.458;14.540;2022-07-25T07:52:07;3.90;;;1.60;;
68076;SDS011;54866;53.458;14.540;2022-07-25T07:54:37;3.60;;;1.70;;
68076;SDS011;54866;53.458;14.540;2022-07-25T07:57:24;4.30;;;2.00;;
68076;SDS011;54866;53.458;14.540;2022-07-25T07:59:54;3.40;;;1.90;;
68076;SDS011;54866;53.458;14.540;2022-07-25T08:02:24;2.50;;;1.70;;
68076;SDS011;54866;53.458;14.540;2022-07-25T08:04:54;4.00;;;1.90;;
68076;SDS011;54866;53.458;14.540;2022-07-25T08:07:23;3.60;;;1.80;;
68076;SDS011;54866;53.458;14.540;2022-07-25T08:09:53;4.40;;;2.00;;
68076;SDS011;54866;53.458;14.540;2022-07-25T08:12:23;6.10;;;1.90;;
68076;SDS011;54866;53.458;14.540;2022-07-25T08:14:53;2.50;;;1.50;;
68076;SDS011;54866;53.458;14.540;2022-07-25T08:17:22;2.80;;;1.80;;
68076;SDS011;54866;53.458;14.540;2022-07-25T08:19:52;2.70;;;2.00;;
68076;SDS011;54866;53.458;14.540;2022-07-25T08:22:22;4.60;;;2.20;;
68076;SDS011;54866;53.458;14.540;2022-07-25T08:24:51;3.90;;;2.50;;
68076;SDS011;54866;53.458;14.540;2022-07-25T08:27:21;2.60;;;2.00;;
68076;SDS011;54866;53.458;14.540;2022-07-25T08:29:51;3.50;;;2.20;;
68076;SDS011;54866;53.458;14.540;2022-07-25T08:32:21;3.40;;;1.90;;
68076;SDS011;54866;53.458;14.540;2022-07-25T08:34:51;4.00;;;2.30;;
68076;SDS011;54866;53.458;14.540;2022-07-25T08:37:21;5.00;;;2.00;;
68076;SDS011;54866;53.458;14.540;2022-07-25T08:39:52;3.90;;;2.60;;
68076;SDS011;54866;53.458;14.540;2022-07-25T08:42:22;3.50;;;2.40;;
68076;SDS011;54866;53.458;14.540;2022-07-25T08:44:54;3.50;;;2.40;;
68076;SDS011;54866;53.458;14.540;2022-07-25T08:47:25;4.40;;;2.30;;
68076;SDS011;54866;53.458;14.540;2022-07-25T08:49:56;3.70;;;2.60;;
68076;SDS011;54866;53.458;14.540;2022-07-25T08:52:26;3.00;;;2.10;;
68076;SDS011;54866;53.458;14.540;2022-07-25T08:54:56;3.40;;;2.50;;
68076;SDS011;54866;53.458;14.540;2022-07-25T08:57:26;3.90;;;2.50;;
68076;SDS011;54866;53.458;14.540;2022-07-25T08:59:59;4.40;;;2.90;;
68076;SDS011;54866;53.458;14.540;2022-07-25T09:02:31;3.80;;;2.40;;
68076;SDS011;54866;53.458;14.540;2022-07-25T09:05:01;13.40;;;3.70;;
68076;SDS011;54866;53.458;14.540;2022-07-25T09:07:33;3.20;;;2.60;;
68076;SDS011;54866;53.458;14.540;2022-07-25T09:10:15;2.90;;;2.60;;
68076;SDS011;54866;53.458;14.540;2022-07-25T09:12:51;4.00;;;3.60;;
68076;SDS011;54866;53.458;14.540;2022-07-25T09:15:23;3.60;;;2.90;;
68076;SDS011;54866;53.458;14.540;2022-07-25T09:17:55;3.50;;;2.80;;
68076;SDS011;54866;53.458;14.540;2022-07-25T09:20:35;3.60;;;3.10;;
68076;SDS011;54866;53.458;14.540;2022-07-25T09:23:07;3.20;;;2.70;;
68076;SDS011;54866;53.458;14.540;2022-07-25T09:25:39;3.80;;;3.20;;
68076;SDS011;54866;53.458;14.540;2022-07-25T09:28:10;3.70;;;3.20;;
68076;SDS011;54866;53.458;14.540;2022-07-25T09:30:51;5.10;;;3.40;;
68076;SDS011;54866;53.458;14.540;2022-07-25T09:33:21;3.80;;;3.30;;
68076;SDS011;54866;53.458;14.540;2022-07-25T09:35:53;6.20;;;3.60;;
68076;SDS011;54866;53.458;14.540;2022-07-25T09:38:23;4.50;;;3.50;;
68076;SDS011;54866;53.458;14.540;2022-07-25T09:40:56;5.30;;;3.50;;
68076;SDS011;54866;53.458;14.540;2022-07-25T09:43:37;5.60;;;3.30;;
68076;SDS011;54866;53.458;14.540;2022-07-25T09:46:08;3.90;;;3.00;;
68076;SDS011;54866;53.458;14.540;2022-07-25T09:48:39;4.80;;;3.70;;
68076;SDS011;54866;53.458;14.540;2022-07-25T09:51:11;5.80;;;3.60;;
68076;SDS011;54866;53.458;14.540;2022-07-25T09:53:41;4.20;;;3.00;;
68076;SDS011;54866;53.458;14.540;2022-07-25T09:56:11;3.90;;;3.50;;
68076;SDS011;54866;53.458;14.540;2022-07-25T09:58:41;6.60;;;3.80;;
68076;SDS011;54866;53.458;14.540;2022-07-25T10:01:11;3.70;;;3.40;;
68076;SDS011;54866;53.458;14.540;2022-07-25T10:03:49;4.10;;;3.40;;
68076;SDS011;54866;53.458;14.540;2022-07-25T10:06:21;4.10;;;3.20;;
68076;SDS011;54866;53.458;14.540;2022-07-25T10:09:02;4.60;;;3.30;;
68076;SDS011;54866;53.458;14.540;2022-07-25T10:11:36;4.90;;;3.30;;
68076;SDS011;54866;53.458;14.540;2022-07-25T10:14:09;4.90;;;4.20;;
68076;SDS011;54866;53.458;14.540;2022-07-25T10:16:45;3.90;;;3.40;;
68076;SDS011;54866;53.458;14.540;2022-07-25T10:19:15;4.60;;;3.30;;
68076;SDS011;54866;53.458;14.540;2022-07-25T10:22:06;5.30;;;3.60;;
68076;SDS011;54866;53.458;14.540;2022-07-25T10:24:37;4.20;;;3.40;;
68076;SDS011;54866;53.458;14.540;2022-07-25T10:27:13;3.70;;;3.40;;
68076;SDS011;54866;53.458;14.540;2022-07-25T10:29:51;5.10;;;3.90;;
68076;SDS011;54866;53.458;14.540;2022-07-25T10:32:24;4.70;;;3.60;;
68076;SDS011;54866;53.458;14.540;2022-07-25T10:35:00;4.10;;;3.70;;
68076;SDS011;54866;53.458;14.540;2022-07-25T10:37:43;4.20;;;3.80;;
68076;SDS011;54866;53.458;14.540;2022-07-25T10:40:31;4.10;;;3.50;;
68076;SDS011;54866;53.458;14.540;2022-07-25T10:43:08;4.60;;;4.20;;
68076;SDS011;54866;53.458;14.540;2022-07-25T10:45:48;7.70;;;4.10;;
68076;SDS011;54866;53.458;14.540;2022-07-25T10:48:23;4.20;;;3.80;;
68076;SDS011;54866;53.458;14.540;2022-07-25T10:50:57;4.50;;;3.90;;
68076;SDS011;54866;53.458;14.540;2022-07-25T10:53:32;4.40;;;3.60;;
68076;SDS011;54866;53.458;14.540;2022-07-25T10:56:05;5.10;;;4.00;;
68076;SDS011;54866;53.458;14.540;2022-07-25T10:58:45;3.80;;;3.40;;
68076;SDS011;54866;53.458;14.540;2022-07-25T11:01:19;4.30;;;3.60;;
68076;SDS011;54866;53.458;14.540;2022-07-25T11:03:52;4.30;;;3.70;;
68076;SDS011;54866;53.458;14.540;2022-07-25T11:06:29;4.70;;;3.90;;
68076;SDS011;54866;53.458;14.540;2022-07-25T11:09:02;4.10;;;3.60;;
68076;SDS011;54866;53.458;14.540;2022-07-25T11:11:41;4.40;;;3.60;;
68076;SDS011;54866;53.458;14.540;2022-07-25T11:14:15;4.20;;;3.80;;
68076;SDS011;54866;53.458;14.540;2022-07-25T11:16:46;4.90;;;3.50;;
68076;SDS011;54866;53.458;14.540;2022-07-25T11:19:18;4.70;;;3.70;;
68076;SDS011;54866;53.458;14.540;2022-07-25T11:21:50;4.50;;;4.10;;
68076;SDS011;54866;53.458;14.540;2022-07-25T11:24:32;4.20;;;3.90;;
68076;SDS011;54866;53.458;14.540;2022-07-25T11:27:03;4.40;;;4.00;;
68076;SDS011;54866;53.458;14.540;2022-07-25T11:29:35;5.00;;;3.70;;
68076;SDS011;54866;53.458;14.540;2022-07-25T11:32:08;4.20;;;3.80;;
68076;SDS011;54866;53.458;14.540;2022-07-25T11:34:40;4.90;;;3.70;;
68076;SDS011;54866;53.458;14.540;2022-07-25T11:37:12;4.30;;;3.90;;
68076;SDS011;54866;53.458;14.540;2022-07-25T11:39:44;5.50;;;3.80;;
68076;SDS011;54866;53.458;14.540;2022-07-25T11:42:16;5.10;;;4.70;;
68076;SDS011;54866;53.458;14.540;2022-07-25T11:44:48;6.30;;;4.40;;
68076;SDS011;54866;53.458;14.540;2022-07-25T11:47:23;4.80;;;4.30;;
68076;SDS011;54866;53.458;14.540;2022-07-25T11:49:56;6.60;;;4.90;;
68076;SDS011;54866;53.458;14.540;2022-07-25T11:52:29;6.50;;;5.30;;
68076;SDS011;54866;53.458;14.540;2022-07-25T11:55:00;5.30;;;4.40;;
68076;SDS011;54866;53.458;14.540;2022-07-25T11:57:35;4.20;;;3.80;;
68076;SDS011;54866;53.458;14.540;2022-07-25T12:00:09;4.80;;;4.20;;
68076;SDS011;54866;53.458;14.540;2022-07-25T12:02:43;4.90;;;4.50;;
68076;SDS011;54866;53.458;14.540;2022-07-25T12:05:14;6.20;;;4.80;;
68076;SDS011;54866;53.458;14.540;2022-07-25T12:07:47;6.50;;;4.60;;
68076;SDS011;54866;53.458;14.540;2022-07-25T12:10:20;5.70;;;5.20;;
68076;SDS011;54866;53.458;14.540;2022-07-25T12:12:51;6.00;;;5.40;;
68076;SDS011;54866;53.458;14.540;2022-07-25T12:15:23;7.00;;;6.30;;
68076;SDS011;54866;53.458;14.540;2022-07-25T12:17:55;6.40;;;5.40;;
68076;SDS011;54866;53.458;14.540;2022-07-25T12:20:27;7.10;;;6.50;;
68076;SDS011;54866;53.458;14.540;2022-07-25T12:22:59;6.70;;;5.90;;
68076;SDS011;54866;53.458;14.540;2022-07-25T12:25:30;6.10;;;5.50;;
68076;SDS011;54866;53.458;14.540;2022-07-25T12:28:02;6.80;;;6.10;;
68076;SDS011;54866;53.458;14.540;2022-07-25T12:30:34;6.10;;;5.60;;
68076;SDS011;54866;53.458;14.540;2022-07-25T12:33:04;6.60;;;5.80;;
68076;SDS011;54866;53.458;14.540;2022-07-25T12:35:35;5.90;;;5.40;;
68076;SDS011;54866;53.458;14.540;2022-07-25T12:38:06;6.50;;;5.90;;
68076;SDS011;54866;53.458;14.540;2022-07-25T12:40:36;5.40;;;4.70;;
68076;SDS011;54866;53.458;14.540;2022-07-25T12:43:07;6.00;;;5.40;;
68076;SDS011;54866;53.458;14.540;2022-07-25T12:45:37;6.00;;;5.50;;
68076;SDS011;54866;53.458;14.540;2022-07-25T12:48:07;6.70;;;5.80;;
68076;SDS011;54866;53.458;14.540;2022-07-25T12:50:40;6.00;;;5.50;;
68076;SDS011;54866;53.458;14.540;2022-07-25T12:53:10;7.20;;;6.60;;
68076;SDS011;54866;53.458;14.540;2022-07-25T12:55:40;6.50;;;6.00;;
68076;SDS011;54866;53.458;14.540;2022-07-25T12:58:10;6.60;;;6.00;;
68076;SDS011;54866;53.458;14.540;2022-07-25T13:00:40;6.60;;;5.90;;
68076;SDS011;54866;53.458;14.540;2022-07-25T13:03:13;6.90;;;6.40;;
68076;SDS011;54866;53.458;14.540;2022-07-25T13:05:43;6.50;;;5.90;;
68076;SDS011;54866;53.458;14.540;2022-07-25T13:08:13;7.00;;;6.30;;
68076;SDS011;54866;53.458;14.540;2022-07-25T13:10:43;7.10;;;6.10;;
68076;SDS011;54866;53.458;14.540;2022-07-25T13:13:13;7.00;;;6.30;;
68076;SDS011;54866;53.458;14.540;2022-07-25T13:15:43;6.40;;;5.80;;
68076;SDS011;54866;53.458;14.540;2022-07-25T13:18:12;6.50;;;5.90;;
68076;SDS011;54866;53.458;14.540;2022-07-25T13:20:42;7.20;;;6.60;;
68076;SDS011;54866;53.458;14.540;2022-07-25T13:23:12;6.40;;;5.90;;
68076;SDS011;54866;53.458;14.540;2022-07-25T13:25:42;7.00;;;6.30;;
68076;SDS011;54866;53.458;14.540;2022-07-25T13:28:11;6.10;;;5.50;;
68076;SDS011;54866;53.458;14.540;2022-07-25T13:30:42;6.70;;;6.10;;
68076;SDS011;54866;53.458;14.540;2022-07-25T13:33:12;7.40;;;5.90;;
68076;SDS011;54866;53.458;14.540;2022-07-25T13:35:42;6.80;;;6.20;;
68076;SDS011;54866;53.458;14.540;2022-07-25T13:38:11;7.00;;;6.40;;
68076;SDS011;54866;53.458;14.540;2022-07-25T13:40:42;7.60;;;6.90;;
68076;SDS011;54866;53.458;14.540;2022-07-25T13:43:12;7.60;;;6.90;;
68076;SDS011;54866;53.458;14.540;2022-07-25T13:45:42;6.40;;;5.80;;
68076;SDS011;54866;53.458;14.540;2022-07-25T13:48:12;6.70;;;6.10;;
68076;SDS011;54866;53.458;14.540;2022-07-25T13:50:42;7.50;;;6.90;;
68076;SDS011;54866;53.458;14.540;2022-07-25T13:53:12;7.60;;;6.80;;
68076;SDS011;54866;53.458;14.540;2022-07-25T13:55:42;7.70;;;7.10;;
68076;SDS011;54866;53.458;14.540;2022-07-25T13:58:12;7.90;;;7.10;;
68076;SDS011;54866;53.458;14.540;2022-07-25T14:00:42;7.60;;;7.00;;
68076;SDS011;54866;53.458;14.540;2022-07-25T14:03:12;7.20;;;6.60;;
68076;SDS011;54866;53.458;14.540;2022-07-25T14:05:41;7.00;;;6.40;;
68076;SDS011;54866;53.458;14.540;2022-07-25T14:08:11;8.20;;;7.50;;
68076;SDS011;54866;53.458;14.540;2022-07-25T14:10:41;7.70;;;7.00;;
68076;SDS011;54866;53.458;14.540;2022-07-25T14:13:11;8.10;;;7.30;;
68076;SDS011;54866;53.458;14.540;2022-07-25T14:15:41;8.20;;;7.50;;
68076;SDS011;54866;53.458;14.540;2022-07-25T14:18:11;7.90;;;7.30;;
68076;SDS011;54866;53.458;14.540;2022-07-25T14:20:41;8.10;;;7.20;;
68076;SDS011;54866;53.458;14.540;2022-07-25T14:23:12;7.70;;;7.00;;
68076;SDS011;54866;53.458;14.540;2022-07-25T14:25:41;7.00;;;6.50;;
68076;SDS011;54866;53.458;14.540;2022-07-25T14:28:11;8.00;;;7.20;;
68076;SDS011;54866;53.458;14.540;2022-07-25T14:30:41;8.60;;;7.90;;
68076;SDS011;54866;53.458;14.540;2022-07-25T14:33:11;8.20;;;7.10;;
68076;SDS011;54866;53.458;14.540;2022-07-25T14:35:41;7.50;;;6.80;;
68076;SDS011;54866;53.458;14.540;2022-07-25T14:38:11;8.00;;;7.30;;
68076;SDS011;54866;53.458;14.540;2022-07-25T14:40:40;7.80;;;7.20;;
68076;SDS011;54866;53.458;14.540;2022-07-25T14:43:10;8.10;;;7.40;;
68076;SDS011;54866;53.458;14.540;2022-07-25T14:45:41;10.30;;;7.30;;
68076;SDS011;54866;53.458;14.540;2022-07-25T14:48:10;8.50;;;7.70;;
68076;SDS011;54866;53.458;14.540;2022-07-25T14:50:40;8.10;;;7.40;;
68076;SDS011;54866;53.458;14.540;2022-07-25T14:53:10;8.10;;;7.40;;
68076;SDS011;54866;53.458;14.540;2022-07-25T14:55:40;8.40;;;7.80;;
68076;SDS011;54866;53.458;14.540;2022-07-25T14:58:10;7.90;;;7.30;;